createdAt,value
2022-07-29T00:00:12.274Z,2.88
2022-07-29T00:02:42.560Z,2.70
2022-07-29T00:05:16.250Z,3.85
2022-07-29T00:07:46.405Z,2.53
2022-07-29T00:10:16.539Z,3.67
2022-07-29T00:12:46.444Z,2.70
2022-07-29T00:15:17.441Z,2.25
2022-07-29T00:17:47.361Z,2.10
2022-07-29T00:20:20.420Z,2.90
2022-07-29T00:22:59.521Z,2.47
2022-07-29T00:25:43.374Z,1.50
2022-07-29T00:28:27.785Z,1.67
2022-07-29T00:30:57.818Z,1.58
2022-07-29T00:33:28.109Z,1.80
2022-07-29T00:36:04.084Z,2.67
2022-07-29T00:38:34.147Z,1.80
2022-07-29T00:41:21.979Z,2.00
2022-07-29T00:43:52.047Z,2.35
2022-07-29T00:47:30.830Z,1.42
2022-07-29T00:50:21.242Z,1.70
2022-07-29T00:52:51.829Z,2.72
2022-07-29T00:55:37.724Z,1.50
2022-07-29T00:58:07.987Z,2.08
2022-07-29T01:00:48.793Z,2.38
2022-07-29T01:03:18.947Z,3.17
2022-07-29T01:05:51.411Z,1.80
2022-07-29T01:08:47.994Z,3.30
2022-07-29T01:11:19.014Z,1.60
2022-07-29T01:13:51.331Z,1.83
2022-07-29T01:16:25.211Z,0.82
2022-07-29T01:18:58.016Z,1.73
2022-07-29T01:21:34.170Z,2.53
2022-07-29T01:26:46.084Z,0.70
2022-07-29T01:29:38.493Z,1.33
2022-07-29T01:32:38.429Z,1.27
2022-07-29T01:35:19.992Z,1.65
2022-07-29T01:37:52.820Z,0.90
2022-07-29T01:40:24.484Z,3.05
2022-07-29T01:42:59.623Z,1.05
2022-07-29T01:45:33.210Z,0.80
2022-07-29T01:48:21.410Z,1.33
2022-07-29T01:51:29.622Z,1.50
2022-07-29T01:54:05.817Z,2.58
2022-07-29T01:59:37.272Z,1.67
2022-07-29T02:02:35.000Z,0.82
2022-07-29T02:05:13.209Z,1.20
2022-07-29T02:07:44.395Z,1.08
2022-07-29T02:10:18.721Z,1.30
2022-07-29T02:12:58.709Z,1.90
2022-07-29T02:15:39.842Z,3.78
2022-07-29T02:18:26.405Z,1.27
2022-07-29T02:20:57.821Z,1.02
2022-07-29T02:23:45.054Z,1.70
2022-07-29T02:26:21.896Z,1.10
2022-07-29T02:28:53.716Z,0.90
2022-07-29T02:31:25.810Z,1.13
2022-07-29T02:33:56.880Z,0.93
2022-07-29T02:36:27.604Z,1.77
2022-07-29T02:39:00.274Z,1.38
2022-07-29T02:41:38.713Z,1.00
2022-07-29T02:44:18.975Z,0.80
2022-07-29T02:46:52.477Z,0.90
2022-07-29T02:52:56.986Z,1.65
2022-07-29T02:58:44.916Z,1.73
2022-07-29T03:01:26.389Z,0.75
2022-07-29T03:03:57.466Z,1.40
2022-07-29T03:06:38.594Z,1.85
2022-07-29T03:09:13.348Z,1.95
2022-07-29T03:11:49.552Z,0.80
2022-07-29T03:14:26.065Z,2.33
2022-07-29T03:17:11.063Z,1.00
2022-07-29T03:19:41.176Z,1.20
2022-07-29T03:22:11.325Z,0.73
2022-07-29T03:24:41.528Z,1.90
2022-07-29T03:27:17.027Z,0.60
2022-07-29T03:29:49.893Z,1.00
2022-07-29T03:32:25.121Z,1.15
2022-07-29T03:34:55.456Z,0.93
2022-07-29T03:37:28.681Z,1.98
2022-07-29T03:40:02.396Z,0.65
2022-07-29T03:42:36.604Z,0.60
2022-07-29T03:45:12.886Z,0.55
2022-07-29T03:47:51.162Z,1.20
2022-07-29T03:50:23.393Z,0.77
2022-07-29T03:52:53.650Z,0.80
2022-07-29T03:55:31.406Z,1.95
2022-07-29T03:58:01.558Z,0.63
2022-07-29T04:00:31.717Z,0.50
2022-07-29T04:03:01.777Z,0.50
2022-07-29T04:05:32.307Z,1.15
2022-07-29T05:00:55.533Z,2.30
2022-07-29T05:03:26.485Z,0.80
2022-07-29T05:05:56.639Z,0.60
2022-07-29T05:08:26.936Z,0.60
2022-07-29T05:10:57.025Z,0.77
2022-07-29T05:13:26.975Z,4.72
2022-07-29T05:16:15.804Z,0.60
2022-07-29T05:18:45.955Z,0.43
2022-07-29T05:21:15.976Z,1.38
2022-07-29T05:23:45.883Z,0.70
2022-07-29T05:26:16.371Z,0.80
2022-07-29T05:28:46.317Z,0.70
2022-07-29T05:31:17.229Z,1.30
2022-07-29T05:33:47.730Z,0.60
2022-07-29T05:36:17.960Z,0.80
2022-07-29T05:38:47.894Z,0.93
2022-07-29T05:41:17.912Z,0.82
2022-07-29T05:43:48.124Z,1.02
2022-07-29T05:46:18.787Z,1.63
2022-07-29T05:48:49.216Z,1.60
2022-07-29T05:51:19.295Z,1.52
2022-07-29T05:53:49.285Z,2.15
2022-07-29T05:56:20.276Z,1.30
2022-07-29T05:58:50.691Z,1.35
2022-07-29T06:01:21.218Z,1.05
2022-07-29T06:03:51.173Z,0.85
2022-07-29T06:06:21.092Z,1.45
2022-07-29T06:08:52.452Z,1.50
2022-07-29T06:11:23.483Z,0.80
2022-07-29T06:13:53.636Z,0.80
2022-07-29T06:16:30.193Z,0.85
2022-07-29T06:19:01.589Z,1.67
2022-07-29T06:21:36.233Z,1.08
2022-07-29T06:24:12.050Z,1.38
2022-07-29T06:26:42.353Z,1.00
2022-07-29T06:29:15.815Z,0.77
2022-07-29T06:31:45.800Z,2.00
2022-07-29T06:34:16.034Z,0.85
2022-07-29T06:36:46.996Z,0.90
2022-07-29T06:39:17.166Z,0.90
2022-07-29T06:41:51.485Z,2.70
2022-07-29T06:44:21.818Z,0.82
2022-07-29T06:46:54.105Z,2.22
2022-07-29T06:49:24.476Z,1.13
2022-07-29T06:51:54.467Z,1.33
2022-07-29T06:54:24.625Z,1.30
2022-07-29T06:56:55.707Z,2.28
2022-07-29T06:59:35.100Z,1.30
2022-07-29T07:02:06.010Z,1.83
2022-07-29T07:04:36.397Z,1.23
2022-07-29T07:07:06.640Z,1.80
2022-07-29T07:09:40.689Z,1.27
2022-07-29T07:12:11.715Z,1.42
2022-07-29T07:14:43.626Z,2.17
2022-07-29T07:17:13.786Z,2.50
2022-07-29T07:19:45.373Z,1.52
2022-07-29T07:25:18.874Z,1.73
2022-07-29T07:27:49.080Z,1.30
2022-07-29T07:30:19.367Z,2.17
2022-07-29T07:32:50.403Z,1.52
2022-07-29T07:35:20.482Z,1.33
2022-07-29T07:37:50.666Z,2.97
2022-07-29T07:40:20.630Z,2.58
2022-07-29T07:42:50.696Z,2.35
2022-07-29T07:45:20.697Z,2.42
2022-07-29T07:47:50.672Z,2.13
2022-07-29T07:50:20.795Z,2.38
2022-07-29T07:52:52.131Z,4.20
2022-07-29T07:55:22.759Z,8.18
2022-07-29T07:57:52.720Z,6.35
2022-07-29T08:00:23.302Z,6.28
2022-07-29T08:02:54.075Z,6.63
2022-07-29T08:05:24.175Z,3.40
2022-07-29T08:07:54.110Z,3.90
2022-07-29T08:10:42.904Z,2.83
2022-07-29T08:13:16.365Z,3.08
2022-07-29T08:15:49.232Z,4.55
2022-07-29T08:18:19.270Z,9.63
2022-07-29T08:20:49.611Z,9.45
2022-07-29T08:23:21.643Z,2.85
2022-07-29T08:25:51.612Z,6.57
2022-07-29T08:28:25.989Z,2.63
2022-07-29T08:30:56.364Z,2.55
2022-07-29T08:33:26.246Z,3.17
2022-07-29T08:35:56.186Z,3.30
2022-07-29T08:38:29.493Z,3.40
2022-07-29T08:40:59.466Z,2.78
2022-07-29T08:43:29.699Z,3.75
2022-07-29T08:45:59.678Z,3.72
2022-07-29T08:48:29.648Z,2.65
2022-07-29T08:51:00.708Z,2.35
2022-07-29T08:53:33.666Z,3.80
2022-07-29T08:56:04.415Z,4.55
2022-07-29T08:58:37.187Z,4.15
2022-07-29T09:01:12.374Z,2.38
2022-07-29T09:03:44.170Z,3.47
2022-07-29T09:06:17.375Z,2.85
2022-07-29T09:08:47.988Z,2.30
2022-07-29T09:11:18.183Z,2.92
2022-07-29T09:13:49.056Z,3.83
2022-07-29T09:16:37.252Z,3.22
2022-07-29T09:19:23.062Z,4.55
2022-07-29T09:22:03.247Z,3.95
2022-07-29T09:24:44.278Z,4.32
2022-07-29T09:27:24.674Z,2.95
2022-07-29T09:30:25.565Z,6.65
2022-07-29T09:33:04.224Z,3.53
2022-07-29T09:35:34.891Z,7.03
2022-07-29T09:38:17.741Z,8.98
2022-07-29T09:40:59.898Z,3.38
2022-07-29T09:43:36.024Z,4.07
2022-07-29T09:46:18.400Z,7.10
2022-07-29T09:48:48.347Z,4.78
2022-07-29T09:51:26.913Z,3.95
2022-07-29T09:53:59.929Z,3.67
2022-07-29T09:56:48.113Z,3.40
2022-07-29T09:59:18.647Z,4.95
2022-07-29T10:01:49.144Z,3.88
2022-07-29T10:04:19.504Z,3.85
2022-07-29T10:07:05.364Z,2.53
2022-07-29T10:09:36.038Z,3.97
2022-07-29T10:12:12.147Z,3.05
2022-07-29T10:17:13.909Z,4.22
2022-07-29T10:19:45.386Z,3.38
2022-07-29T10:22:31.190Z,5.70
2022-07-29T10:25:06.017Z,5.03
2022-07-29T10:27:35.984Z,3.13
2022-07-29T10:30:07.191Z,3.63
2022-07-29T10:32:41.037Z,2.85
2022-07-29T10:35:10.934Z,2.15
2022-07-29T10:37:47.931Z,3.72
2022-07-29T10:40:54.923Z,4.95
2022-07-29T10:43:30.031Z,1.52
2022-07-29T10:46:03.294Z,1.90
2022-07-29T10:48:37.689Z,3.58
2022-07-29T10:51:11.832Z,2.25
2022-07-29T10:53:56.124Z,2.35
2022-07-29T10:56:28.571Z,3.50
2022-07-29T10:59:17.182Z,2.00
2022-07-29T11:01:53.530Z,2.97
2022-07-29T11:04:42.506Z,2.45
2022-07-29T11:07:13.220Z,4.40
2022-07-29T11:09:45.808Z,2.70
2022-07-29T11:12:50.454Z,2.90
2022-07-29T11:15:21.781Z,3.78
2022-07-29T11:18:00.362Z,5.18
2022-07-29T11:20:47.787Z,5.32
2022-07-29T11:23:34.064Z,6.22
2022-07-29T11:26:23.481Z,8.65
2022-07-29T11:28:56.677Z,9.90
2022-07-29T11:31:35.970Z,11.85
2022-07-29T11:34:28.159Z,12.02
2022-07-29T11:37:18.017Z,9.90
2022-07-29T11:40:02.058Z,10.88
2022-07-29T11:42:34.404Z,8.07
2022-07-29T11:45:41.640Z,9.25
2022-07-29T11:48:00.726Z,10.43
2022-07-29T11:53:33.501Z,14.75
2022-07-29T11:56:05.292Z,11.90
2022-07-29T11:58:36.331Z,14.70
2022-07-29T12:01:09.842Z,8.00
2022-07-29T12:03:40.911Z,9.85
2022-07-29T12:06:20.975Z,9.98
2022-07-29T12:08:51.248Z,9.88
2022-07-29T12:11:24.514Z,7.35
2022-07-29T12:13:55.584Z,7.82
2022-07-29T12:16:29.712Z,6.53
2022-07-29T12:19:02.329Z,8.93
2022-07-29T12:21:33.466Z,5.53
2022-07-29T12:24:05.894Z,5.40
2022-07-29T12:29:15.524Z,7.70
2022-07-29T12:31:50.338Z,5.00
2022-07-29T12:34:20.392Z,6.93
2022-07-29T12:36:50.342Z,6.10
2022-07-29T12:39:20.969Z,5.30
2022-07-29T12:41:50.983Z,3.28
2022-07-29T12:44:21.019Z,4.45
2022-07-29T12:47:04.983Z,6.93
2022-07-29T12:49:38.160Z,4.18
2022-07-29T12:52:26.429Z,5.63
2022-07-29T12:54:58.259Z,3.78
2022-07-29T12:57:29.501Z,6.05
2022-07-29T13:00:03.484Z,3.58
2022-07-29T13:02:33.491Z,4.28
2022-07-29T13:05:04.755Z,3.03
2022-07-29T13:07:54.324Z,6.15
2022-07-29T13:10:27.372Z,2.60
2022-07-29T13:13:07.825Z,4.95
2022-07-29T13:15:37.917Z,7.43
2022-07-29T13:18:08.562Z,2.88
2022-07-29T13:20:38.662Z,3.95
2022-07-29T13:23:08.619Z,4.72
2022-07-29T13:25:44.371Z,3.22
2022-07-29T13:28:14.288Z,3.67
2022-07-29T13:30:44.878Z,5.03
2022-07-29T13:33:15.620Z,5.65
2022-07-29T13:35:45.986Z,4.32
2022-07-29T13:38:17.190Z,4.35
2022-07-29T13:40:47.176Z,5.32
2022-07-29T13:43:18.163Z,4.90
2022-07-29T13:45:48.253Z,3.45
2022-07-29T13:48:18.221Z,4.78
2022-07-29T13:50:49.228Z,4.93
2022-07-29T13:53:19.239Z,4.70
2022-07-29T13:55:57.427Z,7.10
2022-07-29T13:58:27.419Z,10.95
2022-07-29T14:00:57.461Z,9.20
2022-07-29T14:03:27.910Z,6.15
2022-07-29T14:05:58.897Z,4.35
2022-07-29T14:08:31.722Z,6.97
2022-07-29T14:11:01.692Z,6.95
2022-07-29T14:13:31.700Z,8.98
2022-07-29T14:16:02.185Z,8.98
2022-07-29T14:18:32.075Z,7.38
2022-07-29T14:21:02.488Z,8.60
2022-07-29T14:23:33.680Z,17.80
2022-07-29T14:26:03.650Z,17.58
2022-07-29T14:28:41.839Z,10.23
2022-07-29T14:31:12.156Z,19.90
2022-07-29T14:33:42.066Z,20.65
2022-07-29T14:36:16.268Z,9.48
2022-07-29T14:38:46.617Z,6.30
2022-07-29T14:41:17.593Z,4.68
2022-07-29T14:43:48.665Z,5.75
2022-07-29T14:46:18.797Z,3.67
2022-07-29T14:48:49.174Z,5.72
2022-07-29T14:51:20.077Z,5.47
2022-07-29T14:53:50.007Z,4.78
2022-07-29T14:56:36.445Z,7.22
2022-07-29T14:59:07.991Z,5.47
2022-07-29T15:01:39.061Z,5.88
2022-07-29T15:04:08.991Z,3.10
2022-07-29T15:06:39.413Z,7.45
2022-07-29T15:09:09.326Z,7.07
2022-07-29T15:11:39.237Z,5.40
2022-07-29T15:14:09.829Z,5.97
2022-07-29T15:16:43.549Z,6.70
2022-07-29T15:19:14.805Z,8.20
2022-07-29T15:21:48.856Z,5.72
2022-07-29T15:24:29.823Z,4.63
2022-07-29T15:26:59.947Z,6.13
2022-07-29T15:29:30.142Z,6.93
2022-07-29T15:32:00.556Z,8.75
2022-07-29T15:34:30.925Z,6.78
2022-07-29T15:37:00.936Z,6.28
2022-07-29T15:39:30.963Z,6.72
2022-07-29T15:42:04.045Z,6.25
2022-07-29T15:44:34.377Z,8.43
2022-07-29T15:47:09.864Z,8.68
2022-07-29T15:49:47.190Z,8.10
2022-07-29T15:52:25.806Z,14.18
2022-07-29T15:54:59.701Z,7.25
2022-07-29T15:57:29.727Z,4.00
2022-07-29T16:00:00.889Z,4.85
2022-07-29T16:02:30.910Z,3.72
2022-07-29T16:05:00.802Z,5.97
2022-07-29T16:07:31.390Z,4.07
2022-07-29T16:10:02.701Z,3.22
2022-07-29T16:12:32.714Z,6.88
2022-07-29T16:15:07.606Z,3.50
2022-07-29T16:17:39.693Z,3.28
2022-07-29T16:20:11.169Z,5.68
2022-07-29T16:22:43.923Z,5.38
2022-07-29T16:25:13.917Z,9.05
2022-07-29T16:27:43.818Z,14.52
2022-07-29T16:30:14.373Z,18.33
2022-07-29T16:32:45.463Z,15.98
2022-07-29T16:35:15.861Z,15.85
2022-07-29T16:37:46.951Z,11.55
2022-07-29T16:40:17.399Z,8.35
2022-07-29T16:42:47.574Z,7.03
2022-07-29T16:45:21.288Z,7.03
2022-07-29T16:47:51.625Z,7.45
2022-07-29T16:50:22.625Z,8.27
2022-07-29T16:52:52.572Z,9.38
2022-07-29T16:55:23.013Z,12.02
2022-07-29T16:57:54.257Z,10.00
2022-07-29T17:00:26.358Z,8.52
2022-07-29T17:02:56.295Z,7.25
2022-07-29T17:05:26.451Z,6.60
2022-07-29T17:07:56.450Z,4.95
2022-07-29T17:10:26.428Z,7.53
2022-07-29T17:12:57.925Z,5.90
2022-07-29T17:15:28.452Z,4.95
2022-07-29T17:17:58.386Z,6.47
2022-07-29T17:20:28.969Z,3.70
2022-07-29T17:22:59.275Z,7.97
2022-07-29T17:25:29.294Z,3.65
2022-07-29T17:28:01.117Z,3.95
2022-07-29T17:30:31.989Z,6.03
2022-07-29T17:33:02.956Z,3.33
2022-07-29T17:35:50.967Z,5.88
2022-07-29T17:38:20.854Z,5.47
2022-07-29T17:40:50.743Z,3.20
2022-07-29T17:43:20.655Z,3.30
2022-07-29T17:45:50.885Z,3.58
2022-07-29T17:48:22.664Z,5.85
2022-07-29T17:50:54.608Z,5.13
2022-07-29T18:27:45.591Z,6.40
2022-07-29T18:30:16.649Z,6.25
2022-07-29T18:33:04.947Z,6.53
2022-07-29T18:35:36.560Z,4.57
2022-07-29T18:38:18.916Z,2.92
2022-07-29T18:40:50.087Z,3.60
2022-07-29T18:43:20.409Z,2.15
2022-07-29T18:45:51.253Z,3.35
2022-07-29T18:48:22.360Z,2.45
2022-07-29T18:50:52.304Z,2.75
2022-07-29T18:53:22.359Z,4.20
2022-07-29T18:55:52.243Z,5.15
2022-07-29T18:58:22.200Z,3.17
2022-07-29T19:00:52.161Z,4.00
2022-07-29T19:03:22.078Z,3.95
2022-07-29T19:05:52.016Z,5.60
2022-07-29T19:08:22.095Z,3.88
2022-07-29T19:10:52.452Z,4.38
2022-07-29T19:13:22.386Z,5.13
2022-07-29T19:15:52.338Z,7.55
2022-07-29T19:18:22.414Z,6.32
2022-07-29T19:20:52.316Z,18.65
2022-07-29T19:23:22.281Z,9.18
2022-07-29T19:25:53.972Z,7.15
2022-07-29T19:28:27.261Z,4.63
2022-07-29T19:30:57.193Z,7.20
2022-07-29T19:33:27.200Z,3.92
2022-07-29T19:35:57.099Z,4.93
2022-07-29T19:38:27.507Z,4.35
2022-07-29T19:40:58.125Z,5.38
2022-07-29T19:43:50.378Z,4.10
2022-07-29T19:46:18.011Z,4.97
2022-07-29T19:48:48.082Z,6.63
2022-07-29T19:51:18.266Z,4.35
2022-07-29T19:53:48.362Z,4.70
2022-07-29T19:56:18.257Z,5.95
2022-07-29T19:58:49.719Z,4.07
2022-07-29T20:01:19.713Z,4.30
2022-07-29T20:03:50.081Z,5.10
2022-07-29T20:06:20.162Z,4.43
2022-07-29T20:08:51.902Z,5.85
2022-07-29T20:11:23.268Z,6.43
2022-07-29T20:13:53.174Z,3.92
2022-07-29T20:16:25.467Z,4.35
2022-07-29T20:18:55.991Z,5.20
2022-07-29T20:21:28.341Z,6.72
2022-07-29T20:24:01.950Z,8.10
2022-07-29T20:26:32.253Z,8.38
2022-07-29T20:29:02.597Z,8.90
2022-07-29T20:31:34.071Z,6.35
2022-07-29T20:34:04.357Z,5.45
2022-07-29T20:36:40.406Z,5.30
2022-07-29T20:41:41.128Z,7.57
2022-07-29T20:44:11.051Z,5.03
2022-07-29T20:46:43.870Z,5.68
2022-07-29T20:49:13.892Z,5.43
2022-07-29T20:51:44.159Z,3.60
2022-07-29T20:54:23.666Z,5.38
2022-07-29T20:56:53.631Z,5.97
2022-07-29T20:59:23.596Z,4.45
2022-07-29T21:01:53.582Z,5.93
2022-07-29T21:04:30.521Z,6.13
2022-07-29T21:07:01.853Z,3.97
2022-07-29T21:09:32.551Z,6.78
2022-07-29T21:12:08.608Z,4.20
2022-07-29T21:14:42.583Z,4.57
2022-07-29T21:17:14.330Z,5.30
2022-07-29T21:19:45.915Z,3.85
2022-07-29T21:22:16.174Z,6.07
2022-07-29T21:24:48.383Z,3.03
2022-07-29T21:27:39.391Z,4.55
2022-07-29T21:38:17.983Z,6.60
2022-07-29T21:40:54.449Z,4.07
2022-07-29T21:43:24.697Z,4.93
2022-07-29T21:45:54.667Z,3.05
2022-07-29T21:48:25.438Z,4.70
2022-07-29T21:50:55.762Z,2.53
2022-07-29T21:53:26.952Z,3.15
2022-07-29T21:55:57.454Z,1.98
2022-07-29T21:58:27.429Z,2.28
2022-07-29T22:00:58.388Z,3.08
2022-07-29T22:03:28.394Z,3.30
2022-07-29T22:05:58.365Z,4.70
2022-07-29T22:08:28.281Z,3.75
2022-07-29T22:10:58.593Z,5.20
2022-07-29T22:13:28.568Z,5.18
2022-07-29T22:16:00.679Z,5.10
2022-07-29T22:18:30.995Z,3.17
2022-07-29T22:21:01.307Z,3.45
2022-07-29T22:23:31.233Z,3.55
2022-07-29T22:26:01.127Z,5.07
2022-07-29T22:28:31.042Z,5.75
2022-07-29T22:31:01.024Z,5.45
2022-07-29T22:33:31.017Z,2.67
2022-07-29T22:36:01.333Z,4.63
2022-07-29T22:38:31.419Z,6.30
2022-07-29T22:41:01.744Z,9.05
2022-07-29T22:43:33.536Z,4.38
2022-07-29T22:46:03.592Z,5.90
2022-07-29T22:48:34.022Z,4.25
2022-07-29T22:51:04.104Z,3.85
2022-07-29T22:53:34.507Z,4.32
2022-07-29T22:56:04.419Z,3.92
2022-07-29T22:58:34.748Z,3.10
2022-07-29T23:01:04.721Z,4.20
2022-07-29T23:03:34.943Z,2.90
2022-07-29T23:06:05.019Z,8.80
2022-07-29T23:08:35.663Z,3.58
2022-07-29T23:11:05.599Z,3.95
2022-07-29T23:13:36.604Z,4.82
2022-07-29T23:16:06.600Z,5.38
2022-07-29T23:18:36.551Z,4.47
2022-07-29T23:21:06.475Z,3.78
2022-07-29T23:23:37.810Z,3.55
2022-07-29T23:26:07.795Z,5.95
2022-07-29T23:28:37.719Z,2.83
2022-07-29T23:31:07.692Z,3.83
2022-07-29T23:33:37.661Z,2.53
2022-07-29T23:36:18.378Z,8.25
2022-07-29T23:38:51.475Z,4.28
2022-07-29T23:45:03.187Z,6.50
2022-07-29T23:50:58.507Z,3.47
2022-07-29T23:53:31.998Z,4.45
2022-07-29T23:56:02.183Z,4.40
2022-07-29T23:58:32.674Z,4.75
